Time;durP1;ratioP1;P1;durP2;ratioP2;P2;SDS_P1;SDS_P2;PMS_P1;PMS_P2;Temp;Humidity;BMP_temperature;BMP_pressure;BME280_temperature;BME280_humidity;BME280_pressure;Samples;Min_cycle;Max_cycle;Signal;HPM_P1;HPM_P2
2021/06/19 00:01:42;;;;;;;27.13;18.83;;;19.10;99.90;;;;;;5091760;28;20063;-61
2021/06/19 00:04:08;;;;;;;23.02;16.90;;;19.10;99.90;;;;;;5091804;28;20044;-61
2021/06/19 00:06:34;;;;;;;31.08;18.17;;;19.00;99.90;;;;;;5092199;28;20051;-61
2021/06/19 00:09:00;;;;;;;28.20;18.90;;;19.10;99.90;;;;;;5092099;28;20367;-61
2021/06/19 00:11:25;;;;;;;24.35;17.45;;;19.00;99.90;;;;;;5092043;28;20044;-61
2021/06/19 00:13:51;;;;;;;23.23;16.58;;;19.00;99.90;;;;;;5091833;28;20606;-61
2021/06/19 00:16:17;;;;;;;23.65;17.40;;;19.00;99.90;;;;;;5091710;28;20074;-61
2021/06/19 00:18:43;;;;;;;20.25;15.68;;;19.00;99.90;;;;;;5091769;28;20044;-61
2021/06/19 00:21:08;;;;;;;21.85;17.20;;;19.00;99.90;;;;;;5091859;28;20405;-61
2021/06/19 00:23:34;;;;;;;19.25;15.63;;;19.00;99.90;;;;;;5091529;28;20082;-61
2021/06/19 00:26:00;;;;;;;23.80;18.40;;;19.00;99.90;;;;;;5091705;28;20090;-61
2021/06/19 00:28:27;;;;;;;18.98;15.32;;;19.00;99.90;;;;;;5091766;28;20044;-61
2021/06/19 00:30:53;;;;;;;16.40;14.75;;;19.00;99.90;;;;;;5091503;28;20044;-61
2021/06/19 00:33:18;;;;;;;17.42;14.63;;;19.00;99.90;;;;;;5091813;28;20443;-60
2021/06/19 00:35:44;;;;;;;20.88;16.45;;;19.00;99.90;;;;;;5091696;28;20044;-61
2021/06/19 00:38:10;;;;;;;19.08;16.55;;;19.00;99.90;;;;;;5091522;28;20036;-61
2021/06/19 00:40:36;;;;;;;20.40;17.10;;;19.00;99.90;;;;;;5091570;28;20036;-61
2021/06/19 00:43:03;;;;;;;17.42;15.65;;;19.00;99.90;;;;;;5091521;28;20055;-62
2021/06/19 00:45:32;;;;;;;21.03;17.80;;;19.00;99.90;;;;;;5091479;28;20044;-61
2021/06/19 00:47:58;;;;;;;25.05;17.63;;;18.90;99.90;;;;;;5093980;28;20293;-61
2021/06/19 00:50:26;;;;;;;18.30;15.75;;;19.00;99.90;;;;;;5095497;28;20035;-61
2021/06/19 00:52:52;;;;;;;21.73;17.93;;;19.00;99.90;;;;;;5095284;28;20139;-61
2021/06/19 00:55:19;;;;;;;18.40;16.50;;;19.00;99.90;;;;;;5095329;28;20290;-61
2021/06/19 00:57:45;;;;;;;17.95;15.75;;;18.90;99.90;;;;;;5095143;28;20067;-61
2021/06/19 01:00:12;;;;;;;18.30;15.63;;;18.90;99.90;;;;;;5094899;28;20052;-61
2021/06/19 01:02:39;;;;;;;22.20;17.55;;;18.90;99.90;;;;;;5095085;28;20044;-61
2021/06/19 01:05:07;;;;;;;18.60;16.67;;;18.90;99.90;;;;;;5093781;28;20491;-61
2021/06/19 01:07:33;;;;;;;19.67;17.58;;;18.90;99.90;;;;;;5095089;28;20044;-60
2021/06/19 01:09:59;;;;;;;21.50;18.25;;;18.90;99.90;;;;;;5094995;28;20433;-61
2021/06/19 01:12:26;;;;;;;21.05;17.30;;;18.90;99.90;;;;;;5094786;28;20051;-61
2021/06/19 01:14:56;;;;;;;25.05;17.55;;;18.90;99.90;;;;;;5094898;28;20058;-61
2021/06/19 01:17:22;;;;;;;27.25;19.60;;;18.90;99.90;;;;;;5095182;28;20058;-61
2021/06/19 01:20:13;;;;;;;24.17;19.63;;;18.90;99.90;;;;;;5094914;28;20036;-61
2021/06/19 01:22:43;;;;;;;20.05;16.38;;;18.90;99.90;;;;;;5094767;28;20072;-61
2021/06/19 01:25:20;;;;;;;20.70;16.60;;;18.90;99.90;;;;;;5094374;28;20557;-61
2021/06/19 01:27:52;;;;;;;19.27;16.42;;;18.90;99.90;;;;;;5094740;28;20517;-61
2021/06/19 01:30:23;;;;;;;23.25;17.58;;;18.90;99.90;;;;;;5094734;28;20047;-61
2021/06/19 01:32:50;;;;;;;21.42;17.75;;;18.90;99.90;;;;;;5094648;28;20047;-61
2021/06/19 01:35:16;;;;;;;21.25;19.05;;;18.90;99.90;;;;;;5094433;28;20110;-61
2021/06/19 01:37:44;;;;;;;17.92;15.68;;;18.90;99.90;;;;;;5094295;28;20071;-61
2021/06/19 01:40:15;;;;;;;21.42;19.13;;;18.90;99.90;;;;;;5094525;28;20052;-61
2021/06/19 01:42:43;;;;;;;22.92;19.63;;;18.90;99.90;;;;;;5094420;28;20074;-61
2021/06/19 01:45:18;;;;;;;19.52;17.58;;;18.90;99.90;;;;;;5094302;28;20058;-61
2021/06/19 01:47:45;;;;;;;23.55;19.25;;;18.90;99.90;;;;;;5094332;28;20118;-61
2021/06/19 01:50:13;;;;;;;20.65;18.15;;;18.90;99.90;;;;;;5093984;28;20040;-61
2021/06/19 01:52:39;;;;;;;;;;;18.90;99.90;;;;;;5094671;28;20097;-61
2021/06/19 01:55:06;;;;;;;19.90;17.38;;;18.90;99.90;;;;;;5094124;28;19916;-61
2021/06/19 01:57:32;;;;;;;22.73;19.23;;;18.90;99.90;;;;;;5093787;28;20044;-61
2021/06/19 02:00:05;;;;;;;23.23;19.58;;;18.90;99.90;;;;;;5093235;28;20080;-61
2021/06/19 02:02:31;;;;;;;23.63;19.67;;;18.90;99.90;;;;;;5093778;28;20044;-61
2021/06/19 02:04:57;;;;;;;27.85;19.30;;;19.00;99.90;;;;;;5093797;28;20093;-61
2021/06/19 02:07:23;;;;;;;21.30;19.13;;;18.90;99.90;;;;;;5093795;28;20040;-61
2021/06/19 02:09:49;;;;;;;23.40;19.27;;;18.90;99.90;;;;;;5093895;28;20036;-61
2021/06/19 02:12:15;;;;;;;24.23;20.30;;;18.90;99.90;;;;;;5093735;28;20044;-61
2021/06/19 02:14:42;;;;;;;19.08;17.05;;;18.90;99.90;;;;;;5093649;28;20059;-61
2021/06/19 02:17:07;;;;;;;21.77;19.48;;;18.90;99.90;;;;;;5093664;28;20543;-61
2021/06/19 02:19:33;;;;;;;24.50;19.27;;;18.90;99.90;;;;;;5094132;28;20044;-61
2021/06/19 02:21:59;;;;;;;23.45;18.67;;;18.90;99.90;;;;;;5093994;28;20523;-61
2021/06/19 02:24:24;;;;;;;22.27;18.50;;;18.90;99.90;;;;;;5093277;28;20052;-61
2021/06/19 02:26:50;;;;;;;22.27;19.27;;;18.90;99.90;;;;;;5093475;28;20043;-61
2021/06/19 02:29:16;;;;;;;26.17;19.85;;;18.90;99.90;;;;;;5093344;28;20061;-62
2021/06/19 02:31:41;;;;;;;23.45;20.33;;;18.90;99.90;;;;;;5093651;28;20051;-61
2021/06/19 02:34:07;;;;;;;23.65;20.60;;;18.90;99.90;;;;;;5093141;28;20127;-61
2021/06/19 02:36:33;;;;;;;25.02;21.23;;;18.90;99.90;;;;;;5093444;28;20052;-61
2021/06/19 02:38:58;;;;;;;24.23;21.60;;;18.90;99.90;;;;;;5093378;28;20478;-61
2021/06/19 02:41:24;;;;;;;27.02;23.60;;;18.90;99.90;;;;;;5093181;28;20063;-62
2021/06/19 02:43:50;;;;;;;26.52;23.52;;;18.90;99.90;;;;;;5091663;28;20079;-61
2021/06/19 02:46:16;;;;;;;25.08;21.10;;;18.90;99.90;;;;;;5093148;28;20051;-61
2021/06/19 02:48:41;;;;;;;35.85;26.20;;;18.90;99.90;;;;;;5093044;28;20431;-61
2021/06/19 02:51:07;;;;;;;25.45;22.77;;;18.90;99.90;;;;;;5093011;28;20047;-61
2021/06/19 02:53:33;;;;;;;30.35;23.33;;;18.90;99.90;;;;;;5093070;28;20048;-61
2021/06/19 02:55:58;;;;;;;25.80;23.10;;;18.90;99.90;;;;;;5092949;28;20105;-61
2021/06/19 02:58:24;;;;;;;27.52;23.38;;;18.90;99.90;;;;;;5093062;28;20047;-61
2021/06/19 03:00:50;;;;;;;26.92;21.13;;;18.90;99.90;;;;;;5092852;28;20119;-61
2021/06/19 03:03:16;;;;;;;27.02;21.92;;;18.90;99.90;;;;;;5093098;28;20047;-61
2021/06/19 03:05:42;;;;;;;26.63;21.92;;;19.00;99.90;;;;;;5092848;28;20040;-61
2021/06/19 03:08:09;;;;;;;25.02;22.05;;;19.00;99.90;;;;;;5092766;28;20051;-61
2021/06/19 03:10:37;;;;;;;27.33;22.58;;;19.00;99.90;;;;;;5092325;28;20036;-61
2021/06/19 03:13:04;;;;;;;26.98;21.83;;;18.90;99.90;;;;;;5092608;28;20465;-61
2021/06/19 03:15:30;;;;;;;30.55;25.55;;;18.90;99.90;;;;;;5092385;28;20065;-61
2021/06/19 03:17:55;;;;;;;27.92;23.88;;;19.00;99.90;;;;;;5092633;28;20040;-61
2021/06/19 03:20:22;;;;;;;29.35;25.25;;;19.00;99.90;;;;;;5092428;28;20392;-61
2021/06/19 03:23:00;;;;;;;29.17;24.52;;;19.00;99.90;;;;;;5092423;28;20470;-61
2021/06/19 03:25:28;;;;;;;27.60;24.67;;;19.00;99.90;;;;;;5092570;28;20048;-61
2021/06/19 03:27:56;;;;;;;25.63;23.00;;;19.00;99.90;;;;;;5092335;28;20043;-61
2021/06/19 03:30:22;;;;;;;28.63;24.10;;;19.00;99.90;;;;;;5092346;28;20047;-60
2021/06/19 03:32:48;;;;;;;27.83;24.83;;;19.00;99.90;;;;;;5092321;28;20036;-61
2021/06/19 03:35:15;;;;;;;29.38;24.98;;;19.10;99.90;;;;;;5092231;28;20104;-60
2021/06/19 03:37:44;;;;;;;32.80;24.75;;;19.10;99.90;;;;;;5092141;28;20048;-61
2021/06/19 03:40:10;;;;;;;;;;;19.10;99.90;;;;;;5092585;28;20044;-60
2021/06/19 03:42:37;;;;;;;27.63;24.70;;;19.10;99.90;;;;;;5091817;28;19939;-61
2021/06/19 03:45:05;;;;;;;26.40;23.58;;;19.10;99.90;;;;;;5092085;28;20044;-61
2021/06/19 03:47:31;;;;;;;28.00;24.88;;;19.10;99.90;;;;;;5092246;28;20044;-61
2021/06/19 03:49:56;;;;;;;26.83;24.00;;;19.20;99.90;;;;;;5091980;28;20048;-61
2021/06/19 03:52:22;;;;;;;27.20;24.35;;;19.20;99.90;;;;;;5091940;28;20048;-61
2021/06/19 03:54:48;;;;;;;26.63;23.55;;;19.20;99.90;;;;;;5092163;28;20048;-60
2021/06/19 03:57:29;;;;;;;25.95;23.17;;;19.20;99.90;;;;;;5092466;28;20050;-61
2021/06/19 03:59:56;;;;;;;26.33;23.55;;;19.20;99.90;;;;;;5091978;28;20055;-60
2021/06/19 04:02:22;;;;;;;27.88;24.88;;;19.20;99.90;;;;;;5091980;28;20048;-61
2021/06/19 04:04:49;;;;;;;28.33;25.25;;;19.20;99.90;;;;;;5091890;28;20119;-60
2021/06/19 04:07:15;;;;;;;28.27;25.13;;;19.30;99.90;;;;;;5091884;28;20036;-60
2021/06/19 04:09:43;;;;;;;27.17;24.17;;;19.20;99.90;;;;;;5091691;28;20055;-61
2021/06/19 04:12:09;;;;;;;26.63;23.85;;;19.30;99.90;;;;;;5091792;28;20070;-61
2021/06/19 04:14:35;;;;;;;28.27;24.60;;;19.30;99.90;;;;;;5091846;28;20098;-61
2021/06/19 04:17:01;;;;;;;28.05;23.88;;;19.30;99.90;;;;;;5091971;28;20036;-61
2021/06/19 04:19:26;;;;;;;26.77;23.33;;;19.40;99.90;;;;;;5091584;28;20089;-60
2021/06/19 04:21:52;;;;;;;28.55;23.30;;;19.40;99.90;;;;;;5092280;28;20039;-60
2021/06/19 04:24:18;;;;;;;27.05;22.10;;;19.40;99.90;;;;;;5095644;28;20052;-61
2021/06/19 04:26:43;;;;;;;26.75;23.17;;;19.40;99.90;;;;;;5095925;28;20525;-61
2021/06/19 04:29:09;;;;;;;26.30;22.75;;;19.40;99.90;;;;;;5095743;28;20044;-61
2021/06/19 04:31:35;;;;;;;25.05;22.50;;;19.40;99.90;;;;;;5095848;28;20047;-61
2021/06/19 04:34:00;;;;;;;27.42;21.83;;;19.50;99.90;;;;;;5095636;28;20083;-61
2021/06/19 04:36:27;;;;;;;33.45;23.33;;;19.50;99.90;;;;;;5095492;28;20040;-61
2021/06/19 04:38:53;;;;;;;24.25;21.35;;;19.50;99.90;;;;;;5095565;28;20043;-61
2021/06/19 04:41:26;;;;;;;28.52;22.10;;;19.60;99.90;;;;;;5095835;28;20054;-61
2021/06/19 04:46:24;;;;;;;26.73;21.88;;;19.70;99.90;;;;;;5095309;28;20463;-61
2021/06/19 04:48:52;;;;;;;27.48;22.02;;;19.70;99.90;;;;;;5095334;28;20118;-61
2021/06/19 04:51:18;;;;;;;24.33;21.70;;;19.70;99.90;;;;;;5095321;28;20085;-60
2021/06/19 04:53:44;;;;;;;24.90;22.33;;;19.70;99.90;;;;;;5095572;28;20047;-61
2021/06/19 04:56:09;;;;;;;27.08;21.38;;;19.80;99.90;;;;;;5095303;28;20063;-60
2021/06/19 04:58:36;;;;;;;26.05;23.23;;;19.80;99.90;;;;;;5095480;28;20050;-61
2021/06/19 05:01:02;;;;;;;26.33;23.42;;;19.70;99.90;;;;;;5095156;28;20464;-60
2021/06/19 05:03:28;;;;;;;23.92;20.98;;;19.80;99.90;;;;;;5095005;28;20052;-61
2021/06/19 05:05:53;;;;;;;23.80;19.60;;;19.80;99.90;;;;;;5095023;28;20101;-61
2021/06/19 05:08:19;;;;;;;24.60;22.10;;;19.80;99.90;;;;;;5095216;28;20117;-61
2021/06/19 05:10:45;;;;;;;27.02;23.55;;;19.90;99.90;;;;;;5095186;28;20130;-61
2021/06/19 05:13:11;;;;;;;25.08;22.40;;;19.90;99.90;;;;;;5094877;28;20499;-61
2021/06/19 05:15:37;;;;;;;25.60;22.58;;;20.00;99.90;;;;;;5094063;28;20131;-61
2021/06/19 05:18:03;;;;;;;26.38;22.02;;;19.90;99.90;;;;;;5094939;28;20055;-61
2021/06/19 05:20:30;;;;;;;24.17;21.45;;;20.00;99.90;;;;;;5094760;28;20481;-61
2021/06/19 05:22:57;;;;;;;30.08;21.05;;;20.00;99.90;;;;;;5094694;28;20062;-61
2021/06/19 05:25:23;;;;;;;25.60;21.52;;;20.00;99.90;;;;;;5095075;28;20548;-61
2021/06/19 05:27:49;;;;;;;25.85;22.00;;;20.00;99.90;;;;;;5094529;28;20482;-61
2021/06/19 05:30:16;;;;;;;26.17;21.08;;;20.00;99.90;;;;;;5094455;28;20092;-61
2021/06/19 05:32:42;;;;;;;27.13;21.33;;;20.00;99.90;;;;;;5094302;28;20070;-61
2021/06/19 05:35:08;;;;;;;24.25;21.35;;;20.00;99.90;;;;;;5093252;28;20052;-61
2021/06/19 05:37:35;;;;;;;25.88;21.98;;;20.00;99.90;;;;;;5094622;28;20051;-60
2021/06/19 05:40:01;;;;;;;24.42;21.17;;;20.00;99.90;;;;;;5094434;28;20044;-62
2021/06/19 05:42:26;;;;;;;23.50;19.95;;;20.00;99.90;;;;;;5094316;28;20501;-59
2021/06/19 05:44:52;;;;;;;22.35;18.73;;;19.90;99.90;;;;;;5094348;28;20052;-61
2021/06/19 05:47:18;;;;;;;24.27;19.63;;;20.00;99.90;;;;;;5094110;28;20043;-62
2021/06/19 05:49:44;;;;;;;26.38;19.80;;;20.00;99.90;;;;;;5094078;28;20040;-62
2021/06/19 05:52:09;;;;;;;21.55;18.52;;;20.00;99.90;;;;;;5094272;28;20466;-61
2021/06/19 05:54:38;;;;;;;20.92;18.73;;;20.00;99.90;;;;;;5093925;28;20496;-62
2021/06/19 05:57:05;;;;;;;26.00;20.10;;;20.00;99.90;;;;;;5094139;28;20040;-60
2021/06/19 05:59:31;;;;;;;20.67;18.23;;;20.00;99.90;;;;;;5093847;28;20478;-60
2021/06/19 06:01:57;;;;;;;18.90;16.90;;;20.00;99.90;;;;;;5094070;28;20073;-61
2021/06/19 06:04:23;;;;;;;23.00;17.65;;;20.10;99.90;;;;;;5093731;28;20032;-61
2021/06/19 06:06:48;;;;;;;22.60;17.60;;;20.10;99.90;;;;;;5093920;28;20039;-60
2021/06/19 06:09:14;;;;;;;19.90;17.83;;;20.20;99.90;;;;;;5093947;28;20042;-61
2021/06/19 06:11:41;;;;;;;20.65;16.98;;;20.20;99.90;;;;;;5093884;28;20051;-62
2021/06/19 06:14:10;;;;;;;17.73;15.85;;;20.20;99.90;;;;;;5093607;28;20044;-61
2021/06/19 06:16:36;;;;;;;22.27;17.30;;;20.20;99.90;;;;;;5093598;28;20036;-62
2021/06/19 06:19:03;;;;;;;21.05;16.67;;;20.30;99.90;;;;;;5093391;28;20565;-62
2021/06/19 06:21:29;;;;;;;16.35;14.32;;;20.20;99.90;;;;;;5093404;28;20439;-60
2021/06/19 06:23:55;;;;;;;18.38;14.90;;;20.20;99.90;;;;;;5093252;28;20099;-61
2021/06/19 06:26:21;;;;;;;16.70;14.88;;;20.20;99.90;;;;;;5093262;28;20044;-61
2021/06/19 06:28:46;;;;;;;17.23;15.40;;;20.20;99.90;;;;;;5093267;28;20036;-62
2021/06/19 06:31:12;;;;;;;17.08;15.27;;;20.30;99.90;;;;;;5093674;28;20127;-60
2021/06/19 06:33:38;;;;;;;16.45;14.75;;;20.40;99.90;;;;;;5092334;28;20337;-61
2021/06/19 06:36:04;;;;;;;17.13;14.77;;;20.60;99.90;;;;;;5093325;28;20538;-61
2021/06/19 06:38:30;;;;;;;14.85;13.27;;;20.80;99.90;;;;;;5092045;28;20051;-60
2021/06/19 06:40:56;;;;;;;15.95;12.70;;;20.80;99.90;;;;;;5090674;28;20036;-62
2021/06/19 06:43:22;;;;;;;15.68;13.23;;;20.80;99.90;;;;;;5093126;28;20048;-62
2021/06/19 06:45:47;;;;;;;15.20;12.93;;;20.90;99.90;;;;;;5081273;28;20047;-61
2021/06/19 06:48:13;;;;;;;16.13;14.35;;;21.00;99.90;;;;;;5091993;28;20426;-61
2021/06/19 06:50:39;;;;;;;13.75;12.07;;;20.90;99.90;;;;;;5092734;28;20036;-60
2021/06/19 06:53:05;;;;;;;16.33;12.98;;;20.90;99.90;;;;;;5092809;28;20040;-60
2021/06/19 06:55:31;;;;;;;15.10;12.75;;;21.00;99.90;;;;;;5092769;28;20055;-60
2021/06/19 06:57:57;;;;;;;14.88;13.25;;;21.10;99.90;;;;;;5092793;28;20052;-60
2021/06/19 07:00:23;;;;;;;13.05;11.77;;;21.10;99.90;;;;;;5092700;28;20048;-60
2021/06/19 07:02:49;;;;;;;15.40;12.68;;;21.20;99.90;;;;;;5092539;28;20096;-60
2021/06/19 07:05:16;;;;;;;14.88;12.43;;;21.10;99.90;;;;;;5092915;28;20044;-60
2021/06/19 07:07:41;;;;;;;13.77;11.38;;;21.10;99.90;;;;;;5092775;28;20043;-62
2021/06/19 07:10:10;;;;;;;12.63;10.98;;;21.00;99.90;;;;;;5092457;28;20036;-62
2021/06/19 07:12:37;;;;;;;12.93;11.55;;;21.00;99.90;;;;;;5092654;28;20044;-60
2021/06/19 07:15:04;;;;;;;12.85;10.90;;;21.00;99.90;;;;;;5092497;28;20405;-60
2021/06/19 07:17:30;;;;;;;12.40;10.60;;;21.00;99.90;;;;;;5091316;28;20051;-60
2021/06/19 07:19:55;;;;;;;13.20;10.85;;;20.90;99.90;;;;;;5092629;28;20048;-61
2021/06/19 07:22:21;;;;;;;12.07;9.55;;;20.80;99.90;;;;;;5092214;28;20048;-60
2021/06/19 07:24:48;;;;;;;12.90;10.90;;;20.70;99.90;;;;;;5092159;28;20044;-60
2021/06/19 07:27:14;;;;;;;13.38;10.40;;;20.60;99.90;;;;;;5092314;28;20119;-60
2021/06/19 07:29:41;;;;;;;11.80;10.48;;;20.50;99.90;;;;;;5092398;28;20055;-61
2021/06/19 07:32:07;;;;;;;14.32;11.10;;;20.40;99.90;;;;;;5092194;28;20493;-60
2021/06/19 07:34:34;;;;;;;17.25;11.27;;;20.30;99.90;;;;;;5092814;28;20039;-60
2021/06/19 07:36:59;;;;;;;14.45;11.60;;;20.30;99.90;;;;;;5092521;28;20066;-60
2021/06/19 07:39:25;;;;;;;13.82;11.80;;;20.40;99.90;;;;;;5092050;28;20052;-61
2021/06/19 07:41:51;;;;;;;13.07;11.75;;;20.40;99.90;;;;;;5092029;28;20039;-60
2021/06/19 07:44:17;;;;;;;15.55;12.30;;;20.50;99.90;;;;;;5091816;28;20117;-60
2021/06/19 07:46:46;;;;;;;15.52;12.70;;;20.50;99.90;;;;;;5091952;28;20469;-60
2021/06/19 07:49:13;;;;;;;20.80;13.05;;;20.50;99.90;;;;;;5092111;28;20448;-60
2021/06/19 07:51:40;;;;;;;16.80;12.85;;;20.60;99.90;;;;;;5091907;28;20485;-60
2021/06/19 07:54:05;;;;;;;16.00;12.02;;;20.50;99.90;;;;;;5091989;28;20065;-61
2021/06/19 07:56:31;;;;;;;14.43;11.88;;;20.60;99.90;;;;;;5091108;28;20563;-60
2021/06/19 07:58:57;;;;;;;16.48;11.25;;;20.50;99.90;;;;;;5091833;28;20043;-59
2021/06/19 08:01:23;;;;;;;11.88;8.95;;;20.40;99.90;;;;;;5091837;28;20132;-59
2021/06/19 08:03:48;;;;;;;12.75;9.25;;;20.50;99.90;;;;;;5091809;28;20044;-59
2021/06/19 08:06:14;;;;;;;12.93;9.07;;;20.40;99.90;;;;;;5091996;28;20119;-59
2021/06/19 08:08:40;;;;;;;12.90;8.63;;;20.50;99.90;;;;;;5091860;28;20040;-59
2021/06/19 08:11:06;;;;;;;10.05;8.63;;;20.60;99.90;;;;;;5091718;28;20044;-59
2021/06/19 08:13:32;;;;;;;12.07;9.43;;;20.60;99.90;;;;;;5092232;28;20064;-60
2021/06/19 08:16:00;;;;;;;11.30;9.40;;;20.60;99.90;;;;;;5091775;28;20036;-58
2021/06/19 08:18:26;;;;;;;12.67;9.23;;;20.70;99.90;;;;;;5091664;28;20044;-58
2021/06/19 08:20:51;;;;;;;10.85;9.13;;;20.70;99.90;;;;;;5091810;28;20036;-58
2021/06/19 08:23:17;;;;;;;12.27;9.65;;;20.80;99.90;;;;;;5091438;28;20490;-59
2021/06/19 08:25:43;;;;;;;11.02;9.20;;;20.70;99.90;;;;;;5091555;28;20036;-59
2021/06/19 08:28:08;;;;;;;9.85;8.40;;;20.70;99.90;;;;;;5091519;28;20118;-58
2021/06/19 08:30:34;;;;;;;12.25;9.52;;;20.60;99.90;;;;;;5091803;28;20040;-58
2021/06/19 08:33:00;;;;;;;11.13;8.00;;;20.60;99.90;;;;;;5090647;28;20048;-58
2021/06/19 08:35:26;;;;;;;12.82;10.50;;;20.60;99.90;;;;;;5091877;28;20040;-59
2021/06/19 08:37:51;;;;;;;10.75;9.63;;;20.70;99.90;;;;;;5091263;28;20040;-59
2021/06/19 08:40:17;;;;;;;13.55;10.23;;;20.70;99.90;;;;;;5091375;28;20040;-59
2021/06/19 08:42:43;;;;;;;14.02;9.63;;;20.90;99.90;;;;;;5091741;28;20083;-58
2021/06/19 08:45:09;;;;;;;10.32;9.23;;;21.10;99.90;;;;;;5091975;28;20462;-59
2021/06/19 08:47:36;;;;;;;10.55;8.70;;;21.20;99.90;;;;;;5091665;28;20177;-61
2021/06/19 08:50:10;;;;;;;10.65;8.23;;;21.20;99.90;;;;;;5091778;28;20100;-59
2021/06/19 08:52:38;;;;;;;12.40;8.38;;;21.50;99.90;;;;;;5090992;28;20753;-58
2021/06/19 08:55:08;;;;;;;9.50;8.25;;;21.70;99.90;;;;;;5091632;28;20097;-59
2021/06/19 08:57:34;;;;;;;11.00;9.02;;;22.10;99.90;;;;;;5091572;28;20085;-58
2021/06/19 08:59:59;;;;;;;10.30;7.80;;;22.30;99.90;;;;;;5091638;28;20040;-57
2021/06/19 09:02:25;;;;;;;10.38;8.32;;;22.30;99.90;;;;;;5091765;28;20075;-58
2021/06/19 09:05:07;;;;;;;10.50;8.27;;;22.40;99.90;;;;;;5091765;28;20145;-58
2021/06/19 09:07:45;;;;;;;10.98;8.80;;;22.50;99.90;;;;;;5091353;28;20036;-58
2021/06/19 09:10:23;;;;;;;9.27;8.20;;;22.80;99.90;;;;;;5095131;28;20726;-58
2021/06/19 09:13:25;;;;;;;12.57;9.05;;;22.90;99.90;;;;;;5094870;28;20071;-58
2021/06/19 09:15:56;;;;;;;10.23;7.65;;;23.10;99.90;;;;;;5072443;28;20044;-58
2021/06/19 09:18:26;;;;;;;11.55;9.05;;;23.20;99.90;;;;;;5071514;28;20547;-58
2021/06/19 09:20:57;;;;;;;11.50;7.90;;;23.30;99.90;;;;;;5071714;28;20044;-58
2021/06/19 09:23:28;;;;;;;10.05;8.98;;;23.30;99.90;;;;;;5070242;28;20056;-58
2021/06/19 09:26:10;;;;;;;11.20;8.60;;;23.50;99.90;;;;;;5072204;28;20068;-57
2021/06/19 09:29:05;;;;;;;9.27;7.82;;;23.40;99.90;;;;;;5067728;28;20074;-57
2021/06/19 09:31:42;;;;;;;9.25;8.35;;;23.20;99.90;;;;;;5069009;28;20089;-58
2021/06/19 09:34:14;;;;;;;9.35;7.85;;;22.90;99.90;;;;;;5036969;28;20375;-58
2021/06/19 09:36:45;;;;;;;7.72;6.93;;;22.70;99.90;;;;;;5071758;28;20122;-58
2021/06/19 09:39:13;;;;;;;9.27;8.35;;;22.60;99.90;;;;;;5072111;28;20546;-58
2021/06/19 09:41:41;;;;;;;11.10;7.43;;;22.50;99.90;;;;;;5071911;28;20127;-57
2021/06/19 09:44:07;;;;;;;8.80;7.90;;;22.50;99.90;;;;;;5071494;28;20498;-57
2021/06/19 09:46:34;;;;;;;9.32;7.68;;;22.40;99.90;;;;;;5059378;28;20043;-58
2021/06/19 09:49:15;;;;;;;14.93;8.25;;;22.40;99.90;;;;;;5071361;28;20044;-58
2021/06/19 09:51:48;;;;;;;9.88;7.85;;;22.30;99.90;;;;;;5085170;28;20052;-58
2021/06/19 09:54:15;;;;;;;9.73;8.43;;;22.20;99.90;;;;;;5094214;28;20098;-57
2021/06/19 09:56:44;;;;;;;9.10;8.20;;;22.20;99.90;;;;;;5090056;28;20440;-58
2021/06/19 09:59:18;;;;;;;9.85;8.88;;;22.40;99.90;;;;;;5093908;28;20040;-58
2021/06/19 10:01:44;;;;;;;13.85;9.52;;;22.40;99.90;;;;;;5073615;28;20037;-58
2021/06/19 10:04:15;;;;;;;9.18;8.27;;;22.40;99.90;;;;;;5073199;28;20055;-59
2021/06/19 10:06:41;;;;;;;10.05;9.05;;;22.40;99.90;;;;;;5074018;28;20063;-58
2021/06/19 10:09:07;;;;;;;10.10;9.15;;;22.40;99.90;;;;;;5073679;28;20041;-57
2021/06/19 10:11:33;;;;;;;8.82;8.02;;;22.50;99.90;;;;;;5087935;28;20059;-57
2021/06/19 10:14:00;;;;;;;10.63;9.57;;;22.60;99.90;;;;;;5093216;28;20041;-57
2021/06/19 10:16:28;;;;;;;10.50;9.60;;;22.60;99.90;;;;;;5091776;28;20367;-57
2021/06/19 10:18:54;;;;;;;11.57;10.57;;;22.50;99.90;;;;;;5073694;28;20059;-57
2021/06/19 10:21:21;;;;;;;15.70;9.70;;;22.50;99.90;;;;;;5072823;28;20036;-57
2021/06/19 10:23:47;;;;;;;11.85;10.10;;;22.60;99.90;;;;;;5073154;28;20518;-58
2021/06/19 10:26:15;;;;;;;11.45;10.35;;;22.70;99.90;;;;;;5073403;28;20076;-58
2021/06/19 10:28:48;;;;;;;11.20;10.15;;;22.60;99.90;;;;;;5073352;28;20055;-59
2021/06/19 10:31:17;;;;;;;11.55;10.45;;;22.50;99.90;;;;;;5073085;28;20508;-58
2021/06/19 10:33:44;;;;;;;11.98;10.85;;;22.50;99.90;;;;;;5073456;28;20045;-58
2021/06/19 10:36:11;;;;;;;13.70;9.77;;;22.70;99.90;;;;;;5082816;28;20079;-57
2021/06/19 10:38:55;;;;;;;8.80;8.00;;;22.80;99.90;;;;;;5092240;28;20040;-57
2021/06/19 10:41:23;;;;;;;10.45;9.40;;;23.00;99.90;;;;;;5093271;28;20075;-59
2021/06/19 10:43:50;;;;;;;11.00;9.73;;;23.20;99.90;;;;;;5088371;28;20037;-58
2021/06/19 10:46:40;;;;;;;10.70;9.60;;;23.30;99.90;;;;;;5083120;28;20044;-58
2021/06/19 10:49:18;;;;;;;10.10;9.27;;;23.50;99.90;;;;;;5092798;28;20044;-58
2021/06/19 10:51:44;;;;;;;10.65;9.30;;;23.50;99.90;;;;;;5092863;28;20044;-57
2021/06/19 10:54:11;;;;;;;10.35;9.43;;;23.40;99.90;;;;;;5092881;28;20051;-58
2021/06/19 10:56:49;;;;;;;11.00;9.98;;;23.40;99.90;;;;;;5092530;28;20028;-58
2021/06/19 10:59:35;;;;;;;10.23;9.23;;;23.50;99.90;;;;;;5092577;28;20385;-57
2021/06/19 11:02:03;;;;;;;10.98;9.35;;;23.80;99.90;;;;;;5092105;28;20032;-57
2021/06/19 11:04:34;;;;;;;12.52;9.98;;;23.90;99.90;;;;;;5092707;28;20044;-58
2021/06/19 11:07:01;;;;;;;10.32;9.38;;;23.90;99.90;;;;;;5093074;28;20134;-58
2021/06/19 11:09:48;;;;;;;9.82;8.98;;;23.90;99.90;;;;;;5091633;28;20048;-58
2021/06/19 11:12:34;;;;;;;11.30;10.23;;;23.80;99.90;;;;;;5091956;28;20074;-58
2021/06/19 11:15:04;;;;;;;12.55;11.35;;;23.60;99.90;;;;;;5089354;28;20044;-57
2021/06/19 11:17:33;;;;;;;10.60;9.70;;;23.50;99.90;;;;;;5092973;28;20059;-58
2021/06/19 11:20:03;;;;;;;12.45;9.95;;;23.40;99.90;;;;;;5092454;28;20047;-57
2021/06/19 11:22:34;;;;;;;12.45;10.80;;;23.60;99.90;;;;;;5092911;28;20040;-57
2021/06/19 11:25:24;;;;;;;12.75;11.45;;;23.50;99.90;;;;;;5092388;28;20056;-57
2021/06/19 11:28:00;;;;;;;;;;;23.40;99.90;;;;;;5086577;28;20036;-56
2021/06/19 11:30:38;;;;;;;12.25;11.15;;;23.30;99.90;;;;;;5084249;28;19943;-57
2021/06/19 11:33:15;;;;;;;12.02;10.93;;;23.20;99.90;;;;;;5087654;28;20052;-56
2021/06/19 11:35:43;;;;;;;11.77;10.57;;;23.00;99.90;;;;;;5088710;28;20044;-57
2021/06/19 11:38:09;;;;;;;12.38;11.18;;;23.00;99.90;;;;;;5089814;28;20749;-57
2021/06/19 11:40:37;;;;;;;12.85;11.48;;;22.90;99.90;;;;;;5091563;28;20039;-57
2021/06/19 11:43:04;;;;;;;13.80;12.43;;;23.00;99.90;;;;;;5092324;28;20083;-57
2021/06/19 11:45:31;;;;;;;12.57;11.48;;;23.10;99.90;;;;;;5092004;28;20040;-56
2021/06/19 11:48:09;;;;;;;12.00;10.90;;;23.10;99.90;;;;;;5092466;28;20048;-57
2021/06/19 11:50:45;;;;;;;13.33;12.10;;;23.00;99.90;;;;;;5091260;28;20497;-56
2021/06/19 11:53:33;;;;;;;12.77;11.38;;;22.90;99.90;;;;;;5089273;28;20036;-57
2021/06/19 11:56:28;;;;;;;14.13;12.88;;;22.90;99.90;;;;;;5078308;28;20044;-61
2021/06/19 11:58:58;;;;;;;14.77;13.30;;;22.80;99.90;;;;;;5074152;28;20052;-60
2021/06/19 12:01:30;;;;;;;13.02;11.82;;;22.70;99.90;;;;;;5074141;28;20052;-59
2021/06/19 12:04:03;;;;;;;12.57;11.50;;;22.80;99.90;;;;;;5091845;28;20135;-60
2021/06/19 12:06:35;;;;;;;13.93;12.63;;;22.80;99.90;;;;;;5092045;28;20047;-59
2021/06/19 12:09:01;;;;;;;12.38;11.38;;;22.80;99.90;;;;;;5091965;28;20036;-60
2021/06/19 12:11:29;;;;;;;12.10;11.07;;;22.70;99.90;;;;;;5091904;28;20381;-60
2021/06/19 12:13:56;;;;;;;13.98;12.75;;;22.80;99.90;;;;;;5075484;28;20122;-61
2021/06/19 12:16:30;;;;;;;13.65;12.45;;;22.90;99.90;;;;;;5071640;28;20067;-60
2021/06/19 12:19:01;;;;;;;13.55;12.35;;;22.90;99.90;;;;;;5072056;28;20052;-59
2021/06/19 12:21:37;;;;;;;13.32;12.23;;;23.10;99.90;;;;;;5071586;28;20045;-60
2021/06/19 12:24:19;;;;;;;12.90;11.80;;;22.90;99.90;;;;;;5071612;28;20056;-60
2021/06/19 12:27:23;;;;;;;12.10;11.10;;;23.10;99.90;;;;;;5071490;28;20559;-60
2021/06/19 12:29:56;;;;;;;12.85;11.75;;;23.20;99.90;;;;;;5070482;28;20536;-60
2021/06/19 12:32:39;;;;;;;14.20;12.90;;;23.10;99.90;;;;;;5071444;28;20120;-60
2021/06/19 12:35:08;;;;;;;12.23;11.13;;;23.20;99.90;;;;;;5071885;28;20386;-60
2021/06/19 12:37:37;;;;;;;10.90;9.90;;;23.10;99.90;;;;;;5071459;28;20037;-60
2021/06/19 12:40:10;;;;;;;10.30;9.20;;;23.20;99.90;;;;;;5071355;28;20036;-60